Weather

Fire Weather Watch

Issued:
6:34 AM MDT on March 30, 2017
Expires:
8:00 PM MDT on March 31, 2017
Partly Cloudy
Thursday 03/30 0%
Partly Cloudy
Partly cloudy. High 72F. Winds SW at 15 to 25 mph. Winds could occasionally gust over 40 mph.
Partly Cloudy
Friday 03/31 20%
Partly Cloudy
Windy with a few clouds from time to time. High 57F. Winds SW at 20 to 30 mph. Winds could occasionally gust over 40 mph.
Overcast
Saturday 04/01 10%
Overcast
Cloudy. High near 55F. Winds W at 5 to 10 mph.
Clear
Sunday 04/02 0%
Clear
Generally sunny. High 66F. Winds NNW at 10 to 15 mph.
Partly Cloudy
Monday 04/03 0%
Partly Cloudy
Sunny early then partly cloudy and windy later in the day. High 71F. Winds WSW at 20 to 30 mph.

 

 

For a detailed forecast click the banner below.

ballooncastlogo

 

 

Available data for KABQ from the past 2 hours
ALBUQUERQUE, NM
Metar
KABQ 301952Z 24006KT 10SM FEW090 BKN280 18/M06 A2988 RMK AO2 SLP071 T01781056

19:52 UTC

Wind: 240° 6kt

Visibility: 10 SM

Sky: FEW 9000 ft

Temp: 18 deg C / 64.4 deg F

Dewpoint: -6 deg C / 21.2 deg F

Pressure: 29.88 inHg

TAF
KABQ 301724Z 3018/3118 23009KT P6SM BKN200 FM302100 24015G25KT P6SM FEW110 BKN200 FM310200 20011KT P6SM BKN200 FM310600 15009KT P6SM BKN200 FM311500 17010G18KT P6SM FEW150 SCT200 FM311730 21022G32KT P6SM FEW150 SCT200